createdAt,value
2018-12-23T00:04:35.556Z,18.70
2018-12-23T00:09:39.644Z,15.53
2018-12-23T00:14:44.095Z,18.77
2018-12-23T00:19:48.800Z,19.53
2018-12-23T00:24:53.247Z,17.70
2018-12-23T00:29:57.816Z,12.83
2018-12-23T00:35:02.642Z,13.27
2018-12-23T00:40:07.782Z,11.63
2018-12-23T00:45:12.221Z,15.27
2018-12-23T00:50:17.800Z,12.10
2018-12-23T00:55:22.131Z,14.58
2018-12-23T01:00:28.162Z,14.63
2018-12-23T01:05:32.922Z,11.70
2018-12-23T01:10:37.342Z,15.97
2018-12-23T01:15:42.195Z,15.80
2018-12-23T01:20:46.944Z,12.13
2018-12-23T01:25:51.397Z,14.17
2018-12-23T01:30:55.812Z,12.00
2018-12-23T01:36:00.613Z,12.20
2018-12-23T01:41:05.477Z,11.83
2018-12-23T01:46:10.415Z,11.13
2018-12-23T01:51:15.272Z,15.80
2018-12-23T01:56:20.004Z,16.32
2018-12-23T02:01:25.425Z,17.63
2018-12-23T02:06:29.846Z,19.37
2018-12-23T02:11:34.501Z,18.00
2018-12-23T02:16:38.915Z,18.20
2018-12-23T02:21:43.077Z,19.10
2018-12-23T02:26:47.742Z,17.80
2018-12-23T02:31:52.168Z,17.80
2018-12-23T02:36:56.776Z,19.17
2018-12-23T02:42:01.203Z,18.70
2018-12-23T02:47:06.479Z,19.97
2018-12-23T02:52:10.902Z,20.20
2018-12-23T02:57:15.325Z,19.17
2018-12-23T03:02:20.037Z,20.77
2018-12-23T03:07:24.447Z,19.67
2018-12-23T03:12:29.175Z,18.17
2018-12-23T03:17:34.149Z,21.90
2018-12-23T03:22:39.163Z,19.30
2018-12-23T03:27:43.784Z,18.80
2018-12-23T03:32:49.418Z,16.40
2018-12-23T03:37:54.227Z,14.67
2018-12-23T03:42:58.810Z,16.33
2018-12-23T03:48:03.623Z,15.87
2018-12-23T03:53:08.041Z,17.70
2018-12-23T03:58:12.501Z,16.63
2018-12-23T04:09:29.391Z,14.33
2018-12-23T04:14:33.442Z,16.70
2018-12-23T04:19:37.887Z,12.67
2018-12-23T04:24:43.587Z,13.47
2018-12-23T04:29:48.394Z,14.40
2018-12-23T04:34:52.477Z,12.67
2018-12-23T04:39:56.665Z,13.03
2018-12-23T04:45:04.735Z,13.73
2018-12-23T04:50:09.198Z,12.63
2018-12-23T04:55:13.513Z,14.78
2018-12-23T05:00:18.607Z,12.55
2018-12-23T05:05:22.935Z,12.10
2018-12-23T05:10:27.980Z,13.80
2018-12-23T05:15:32.393Z,11.83
2018-12-23T05:20:36.639Z,15.13
2018-12-23T05:25:41.384Z,14.60
2018-12-23T05:30:45.428Z,11.90
2018-12-23T05:35:49.834Z,11.10
2018-12-23T05:40:54.637Z,13.50
2018-12-23T05:45:58.706Z,12.43
2018-12-23T05:51:03.422Z,12.37
2018-12-23T05:56:07.484Z,12.97
2018-12-23T06:01:12.282Z,11.27
2018-12-23T06:06:17.683Z,11.33
2018-12-23T06:11:22.381Z,15.05
2018-12-23T06:16:27.208Z,12.80
2018-12-23T06:21:31.702Z,14.40
2018-12-23T06:26:36.132Z,14.33
2018-12-23T06:31:40.474Z,17.30
2018-12-23T06:36:44.568Z,14.53
2018-12-23T06:41:48.627Z,13.67
2018-12-23T06:46:53.056Z,15.43
2018-12-23T06:51:57.713Z,17.67
2018-12-23T06:57:21.574Z,15.07
2018-12-23T07:02:26.012Z,21.27
2018-12-23T07:07:31.115Z,15.37
2018-12-23T07:12:35.830Z,16.53
2018-12-23T07:17:40.662Z,14.07
2018-12-23T07:22:44.719Z,14.00
2018-12-23T07:27:48.778Z,13.30
2018-12-23T07:32:53.210Z,14.20
2018-12-23T07:37:57.930Z,12.70
2018-12-23T07:43:04.205Z,13.43
2018-12-23T07:48:08.927Z,13.87
2018-12-23T07:53:13.408Z,16.17
2018-12-23T07:58:18.837Z,14.90
2018-12-23T08:03:23.261Z,17.98
2018-12-23T08:08:28.183Z,14.77
2018-12-23T08:13:32.978Z,19.07
2018-12-23T08:18:37.063Z,18.07
2018-12-23T08:23:41.132Z,13.70
2018-12-23T08:28:45.839Z,9.67
2018-12-23T08:33:50.260Z,14.47
2018-12-23T08:38:54.444Z,11.67
2018-12-23T08:43:58.513Z,12.30
2018-12-23T08:49:02.561Z,11.73
2018-12-23T08:54:07.708Z,10.33
2018-12-23T08:59:12.146Z,11.63
2018-12-23T09:04:16.592Z,10.30
2018-12-23T09:09:26.561Z,8.90
2018-12-23T09:14:31.006Z,9.67
2018-12-23T09:19:35.045Z,8.37
2018-12-23T09:24:39.790Z,14.60
2018-12-23T09:29:44.247Z,10.17
2018-12-23T09:34:53.920Z,11.97
2018-12-23T09:39:59.051Z,12.97
2018-12-23T09:45:06.024Z,11.20
2018-12-23T09:50:10.441Z,8.87
2018-12-23T09:55:14.925Z,11.60
2018-12-23T10:00:20.533Z,6.10
2018-12-23T10:05:24.958Z,5.97
2018-12-23T10:10:31.328Z,14.17
2018-12-23T10:15:35.890Z,9.40
2018-12-23T10:20:39.950Z,11.23
2018-12-23T10:25:44.454Z,8.27
2018-12-23T10:30:48.516Z,13.43
2018-12-23T10:35:52.958Z,10.70
2018-12-23T10:40:57.015Z,8.13
2018-12-23T10:46:01.621Z,9.77
2018-12-23T10:51:07.065Z,7.93
2018-12-23T10:56:12.106Z,10.38
2018-12-23T11:01:17.031Z,8.50
2018-12-23T11:06:21.463Z,8.77
2018-12-23T11:11:25.589Z,9.60
2018-12-23T11:16:30.409Z,8.13
2018-12-23T11:21:34.465Z,7.03
2018-12-23T11:26:38.525Z,7.30
2018-12-23T11:31:42.971Z,7.63
2018-12-23T11:36:47.406Z,14.03
2018-12-23T11:41:52.049Z,6.90
2018-12-23T11:46:57.271Z,10.63
2018-12-23T11:52:01.382Z,11.67
2018-12-23T11:57:06.159Z,12.43
2018-12-23T12:02:15.243Z,9.30
2018-12-23T12:07:16.900Z,12.77
2018-12-23T12:12:21.802Z,11.67
2018-12-23T12:17:25.924Z,10.93
2018-12-23T12:22:30.194Z,14.67
2018-12-23T12:27:34.381Z,10.97
2018-12-23T12:32:39.275Z,10.63
2018-12-23T12:37:43.687Z,7.97
2018-12-23T12:42:48.698Z,11.47
2018-12-23T12:47:53.470Z,11.30
2018-12-23T12:52:57.561Z,10.07
2018-12-23T12:58:02.283Z,10.00
2018-12-23T13:03:07.008Z,13.40
2018-12-23T13:08:11.182Z,7.40
2018-12-23T13:13:15.533Z,7.15
2018-12-23T13:18:19.843Z,8.80
2018-12-23T13:23:24.563Z,9.70
2018-12-23T13:28:28.863Z,13.70
2018-12-23T13:33:34.151Z,15.93
2018-12-23T13:38:39.092Z,13.93
2018-12-23T13:43:55.041Z,16.97
2018-12-23T13:51:17.000Z,16.50
2018-12-23T13:58:35.571Z,16.82
2018-12-23T14:03:52.681Z,15.17
2018-12-23T14:09:23.866Z,21.30
2018-12-23T14:14:28.890Z,15.83
2018-12-23T14:19:33.309Z,22.67
2018-12-23T14:24:37.950Z,18.00
2018-12-23T14:29:42.042Z,17.73
2018-12-23T14:34:46.493Z,18.70
2018-12-23T14:39:51.344Z,13.53
2018-12-23T14:44:55.536Z,11.53
2018-12-23T14:49:59.973Z,5.73
2018-12-23T14:55:06.001Z,3.37
2018-12-23T15:00:11.457Z,5.03
2018-12-23T15:05:16.159Z,3.05
2018-12-23T15:10:20.603Z,5.57
2018-12-23T15:15:25.038Z,6.80
2018-12-23T15:20:29.658Z,7.70
2018-12-23T15:25:34.082Z,12.87
2018-12-23T15:30:38.183Z,21.83
2018-12-23T15:35:43.352Z,20.17
2018-12-23T15:40:48.194Z,18.63
2018-12-23T15:45:53.183Z,18.23
2018-12-23T15:51:00.860Z,18.90
2018-12-23T15:56:05.596Z,14.63
2018-12-23T16:01:10.042Z,12.30
2018-12-23T16:06:14.770Z,11.20
2018-12-23T16:11:22.758Z,10.97
2018-12-23T16:16:27.191Z,9.33
2018-12-23T16:21:32.104Z,10.53
2018-12-23T16:26:36.556Z,12.07
2018-12-23T16:31:41.382Z,14.43
2018-12-23T16:36:45.923Z,14.07
2018-12-23T16:41:49.985Z,11.53
2018-12-23T16:46:54.025Z,13.77
2018-12-23T16:51:58.490Z,15.13
2018-12-23T16:57:03.370Z,16.40
2018-12-23T17:02:07.930Z,20.67
2018-12-23T17:07:11.987Z,18.83
2018-12-23T17:12:16.675Z,19.12
2018-12-23T17:17:20.991Z,19.57
2018-12-23T17:22:25.093Z,16.60
2018-12-23T17:27:30.085Z,12.50
2018-12-23T17:32:35.780Z,20.50
2018-12-23T17:37:40.606Z,18.83
2018-12-23T17:42:44.687Z,16.63
2018-12-23T17:47:49.509Z,20.87
2018-12-23T17:52:54.360Z,18.37
2018-12-23T17:57:59.133Z,17.90
2018-12-23T18:03:05.101Z,23.52
2018-12-23T18:08:09.547Z,21.60
2018-12-23T18:19:32.992Z,19.03
2018-12-23T18:24:37.818Z,19.13
2018-12-23T18:29:41.860Z,22.03
2018-12-23T18:34:45.949Z,24.03
2018-12-23T18:39:50.771Z,20.40
2018-12-23T18:44:54.809Z,23.43
2018-12-23T18:49:59.284Z,15.20
2018-12-23T18:55:04.298Z,23.70
2018-12-23T19:00:10.435Z,17.63
2018-12-23T19:05:15.518Z,20.65
2018-12-23T19:11:35.641Z,22.07
2018-12-23T19:17:03.628Z,23.53
2018-12-23T19:22:16.699Z,17.20
2018-12-23T19:30:35.209Z,17.73
2018-12-23T19:36:00.412Z,19.07
2018-12-23T19:43:21.009Z,18.47
2018-12-23T19:50:42.810Z,19.23
2018-12-23T19:55:59.850Z,24.13
2018-12-23T20:02:20.450Z,20.93
2018-12-23T20:07:54.144Z,17.43
2018-12-23T20:13:54.539Z,24.97
2018-12-23T20:19:19.038Z,21.97
2018-12-23T20:24:49.891Z,18.73
2018-12-23T20:30:42.531Z,21.27
2018-12-23T20:36:24.287Z,21.47
2018-12-23T20:42:05.253Z,24.13
2018-12-23T20:47:44.317Z,23.47
2018-12-23T20:53:33.034Z,22.70
2018-12-23T20:59:31.542Z,23.03
2018-12-23T21:04:50.651Z,21.67
2018-12-23T21:10:32.694Z,22.80
2018-12-23T21:16:18.808Z,22.63
2018-12-23T21:21:41.961Z,20.73
2018-12-23T21:27:21.184Z,22.20
2018-12-23T21:32:49.944Z,22.53
2018-12-23T21:38:34.622Z,21.27
2018-12-23T21:44:14.099Z,18.13
2018-12-23T21:49:51.615Z,19.60
2018-12-23T21:55:29.443Z,17.87
2018-12-23T22:01:17.695Z,15.83
2018-12-23T22:07:02.092Z,17.30
2018-12-23T22:12:35.463Z,19.10
2018-12-23T22:17:40.136Z,17.07
2018-12-23T22:22:45.160Z,19.53
2018-12-23T22:27:50.246Z,19.50
2018-12-23T22:32:55.185Z,17.23
2018-12-23T22:37:59.889Z,16.07
2018-12-23T22:43:05.142Z,21.77
2018-12-23T22:48:09.975Z,15.87
2018-12-23T22:53:14.997Z,17.47
2018-12-23T22:58:20.011Z,15.33
2018-12-23T23:03:26.351Z,19.37
2018-12-23T23:08:31.028Z,17.47
2018-12-23T23:13:36.893Z,15.43
2018-12-23T23:18:41.571Z,15.07
2018-12-23T23:23:46.239Z,15.67
2018-12-23T23:28:54.275Z,21.70
2018-12-23T23:33:58.963Z,13.50
2018-12-23T23:39:07.312Z,14.73
2018-12-23T23:44:12.289Z,15.00
2018-12-23T23:49:17.420Z,12.33
2018-12-23T23:54:22.121Z,10.53
2018-12-23T23:59:27.138Z,9.93
